createdAt,value
2019-02-12T00:03:10.107Z,99584.42
2019-02-12T00:09:36.781Z,99600.77
2019-02-12T00:16:06.944Z,99607.31
2019-02-12T00:22:35.442Z,99627.05
2019-02-12T00:29:14.743Z,99634.23
2019-02-12T00:35:40.562Z,99640.86
2019-02-12T00:41:33.053Z,99631.77
2019-02-12T00:48:01.645Z,99638.02
2019-02-12T00:58:25.883Z,99638.68
2019-02-12T01:04:54.596Z,99646.80
2019-02-12T01:11:24.540Z,99654.89
2019-02-12T01:17:52.031Z,99668.44
2019-02-12T01:24:33.443Z,99668.81
2019-02-12T01:31:00.433Z,99659.41
2019-02-12T01:37:26.255Z,99664.75
2019-02-12T01:44:06.967Z,99665.59
2019-02-12T01:50:33.041Z,99680.03
2019-02-12T02:00:36.013Z,99681.03
2019-02-12T02:07:03.855Z,99690.17
2019-02-12T02:13:40.783Z,99708.08
2019-02-12T02:20:07.617Z,99729.35
2019-02-12T02:26:36.362Z,99726.43
2019-02-12T02:33:16.422Z,99716.10
2019-02-12T02:39:59.419Z,99707.61
2019-02-12T02:46:26.267Z,99717.20
2019-02-12T02:52:56.105Z,99714.88
2019-02-12T03:02:23.520Z,99707.32
2019-02-12T03:09:05.702Z,99706.67
2019-02-12T03:15:36.115Z,99704.72
2019-02-12T03:22:03.592Z,99704.91
2019-02-12T03:28:32.252Z,99706.23
2019-02-12T03:35:15.243Z,99712.98
2019-02-12T03:41:07.636Z,99719.40
2019-02-12T03:47:41.309Z,99722.63
2019-02-12T03:54:20.228Z,99724.97
2019-02-12T04:04:22.348Z,99716.87
2019-02-12T04:10:13.788Z,99727.45
2019-02-12T04:16:39.640Z,99732.53
2019-02-12T04:23:06.307Z,99754.20
2019-02-12T04:29:45.261Z,99762.31
2019-02-12T04:36:15.212Z,99763.39
2019-02-12T04:42:06.657Z,99767.09
2019-02-12T04:48:34.802Z,99766.52
2019-02-12T04:55:16.385Z,99769.77
2019-02-12T05:05:34.901Z,99780.76
2019-02-12T05:12:06.787Z,99770.53
2019-02-12T05:18:34.370Z,99759.11
2019-02-12T05:25:13.577Z,99760.19
2019-02-12T05:31:37.121Z,99772.16
2019-02-12T05:38:06.222Z,99779.00
2019-02-12T05:44:07.802Z,99779.11
2019-02-12T05:50:48.528Z,99777.22
2019-02-12T05:57:14.389Z,99774.13
2019-02-12T06:07:33.724Z,99773.91
2019-02-12T06:13:58.323Z,99788.59
2019-02-12T06:20:35.248Z,99784.55
2019-02-12T06:27:03.953Z,99795.41
2019-02-12T06:33:35.184Z,99805.47
2019-02-12T06:40:14.899Z,99816.77
2019-02-12T06:46:40.763Z,99820.46
2019-02-12T06:53:12.543Z,99825.44
2019-02-12T06:59:35.639Z,99827.84
2019-02-12T07:09:16.139Z,99838.88
2019-02-12T07:15:55.096Z,99849.02
2019-02-12T07:23:02.325Z,99846.92
2019-02-12T07:30:22.652Z,99857.05
2019-02-12T07:37:20.851Z,99865.91
2019-02-12T07:44:14.156Z,99871.34
2019-02-12T07:51:44.311Z,99879.66
2019-02-12T07:59:11.034Z,99893.33
2019-02-12T08:06:51.589Z,99900.55
2019-02-12T08:13:59.833Z,99912.41
2019-02-12T08:21:07.666Z,99913.21
2019-02-12T08:28:44.374Z,99913.36
2019-02-12T08:35:30.618Z,99910.02
2019-02-12T08:43:02.087Z,99913.89
2019-02-12T08:50:03.180Z,99922.66
2019-02-12T08:57:09.163Z,99929.34
2019-02-12T09:04:35.894Z,99930.23
2019-02-12T09:14:15.223Z,99935.91
2019-02-12T09:21:06.471Z,99934.91
2019-02-12T09:28:23.943Z,99947.64
2019-02-12T09:35:05.754Z,99960.77
2019-02-12T09:41:54.053Z,99960.50
2019-02-12T09:49:05.321Z,99951.81
2019-02-12T09:56:03.250Z,99953.12
2019-02-12T10:03:04.632Z,99965.31
2019-02-12T10:10:27.013Z,99965.50
2019-02-12T10:17:18.083Z,99975.78
2019-02-12T10:24:23.295Z,99972.70
2019-02-12T10:28:25.692Z,99974.81
2019-02-12T10:34:28.923Z,99986.60
2019-02-12T10:40:55.114Z,99994.14
2019-02-12T10:47:17.757Z,99998.17
2019-02-12T10:53:55.845Z,100006.89
2019-02-12T11:00:23.394Z,100012.59
2019-02-12T11:06:49.501Z,100009.10
2019-02-12T11:16:57.500Z,99996.41
2019-02-12T11:23:24.356Z,99994.20
2019-02-12T11:29:51.190Z,99997.91
2019-02-12T11:35:54.507Z,99990.89
2019-02-12T11:42:18.382Z,99993.23
2019-02-12T11:48:42.166Z,99988.47
2019-02-12T11:55:10.888Z,99984.73
2019-02-12T12:01:47.728Z,99976.84
2019-02-12T12:08:16.927Z,99970.89
2019-02-12T12:18:28.873Z,99968.77
2019-02-12T12:25:01.687Z,99966.80
2019-02-12T12:31:44.741Z,99967.95
2019-02-12T12:38:11.418Z,99958.29
2019-02-12T12:44:37.606Z,99952.95
2019-02-12T12:51:16.593Z,99956.88
2019-02-12T12:57:42.443Z,99969.13
2019-02-12T13:04:10.213Z,99982.95
2019-02-12T13:10:35.815Z,99981.81
2019-02-12T13:20:15.405Z,99974.59
2019-02-12T13:26:51.498Z,99973.39
2019-02-12T13:33:18.168Z,99978.37
2019-02-12T13:39:41.967Z,99969.73
2019-02-12T13:46:18.876Z,99957.73
2019-02-12T13:52:49.116Z,99965.47
2019-02-12T13:59:14.935Z,99965.43
2019-02-12T14:05:04.402Z,99960.59
2019-02-12T14:11:47.122Z,99966.91
2019-02-12T14:22:01.466Z,99970.11
2019-02-12T14:28:29.304Z,99968.25
2019-02-12T14:34:59.165Z,99964.08
2019-02-12T14:41:40.803Z,99959.88
2019-02-12T14:48:06.966Z,99958.61
2019-02-12T14:54:32.784Z,99960.17
2019-02-12T15:00:56.585Z,99953.41
2019-02-12T15:07:00.840Z,99941.73
2019-02-12T15:13:26.695Z,99945.75
2019-02-12T15:23:39.870Z,99937.81
2019-02-12T15:30:06.542Z,99940.06
2019-02-12T15:36:46.873Z,99944.45
2019-02-12T15:43:18.750Z,99956.50
2019-02-12T15:49:45.585Z,99957.08
2019-02-12T15:56:10.013Z,99965.94
2019-02-12T16:02:48.969Z,99968.05
2019-02-12T16:09:18.917Z,99971.18
2019-02-12T16:15:47.191Z,99987.09
2019-02-12T16:25:59.353Z,99988.56
2019-02-12T16:32:33.005Z,99990.73
2019-02-12T16:39:01.855Z,99999.15
2019-02-12T16:45:38.437Z,99994.72
2019-02-12T16:52:20.944Z,100008.33
2019-02-12T16:58:48.607Z,100015.17
2019-02-12T17:05:15.233Z,100017.13
2019-02-12T17:11:43.282Z,100017.64
2019-02-12T17:18:21.214Z,100036.48
2019-02-12T17:28:34.044Z,100058.40
2019-02-12T17:35:01.361Z,100055.94
2019-02-12T17:41:26.559Z,100058.80
2019-02-12T17:48:07.568Z,100060.56
2019-02-12T17:54:35.745Z,100067.28
2019-02-12T18:01:01.312Z,100068.55
2019-02-12T18:07:04.156Z,100076.61
2019-02-12T18:13:44.005Z,100076.09
2019-02-12T18:20:08.927Z,100088.09
2019-02-12T18:30:11.896Z,100094.20
2019-02-12T18:36:39.465Z,100085.77
2019-02-12T18:43:17.675Z,100078.65
2019-02-12T18:49:42.487Z,100081.20
2019-02-12T18:56:08.072Z,100083.06
2019-02-12T19:02:32.112Z,100097.59
2019-02-12T19:08:57.725Z,100110.30
2019-02-12T19:15:25.768Z,100114.63
2019-02-12T19:21:54.617Z,100107.86
2019-02-12T19:28:31.547Z,100115.33
2019-02-12T19:34:58.375Z,100119.52
2019-02-12T19:41:22.946Z,100121.84
2019-02-12T19:48:01.906Z,100133.66
2019-02-12T19:54:25.709Z,100127.00
2019-02-12T20:00:51.758Z,100140.59
2019-02-12T20:07:18.230Z,100131.84
2019-02-12T20:13:58.413Z,100143.02
2019-02-12T20:20:25.376Z,100150.13
2019-02-12T20:26:51.195Z,100149.36
2019-02-12T20:39:49.593Z,100140.59
2019-02-12T20:46:19.762Z,100144.24
2019-02-12T20:52:37.522Z,100157.84
2019-02-12T20:59:16.454Z,100173.92
2019-02-12T21:05:42.823Z,100173.63
2019-02-12T21:12:22.235Z,100175.13
2019-02-12T21:19:02.195Z,100173.86
2019-02-12T21:25:25.989Z,100178.80
2019-02-12T21:35:28.966Z,100173.18
2019-02-12T21:41:56.805Z,100168.79
2019-02-12T21:48:36.393Z,100160.73
2019-02-12T21:54:40.134Z,100163.19
2019-02-12T22:01:10.224Z,100181.14
2019-02-12T22:07:37.053Z,100177.34
2019-02-12T22:14:20.045Z,100183.03
2019-02-12T22:20:50.914Z,100179.00
2019-02-12T22:27:14.715Z,100175.50
2019-02-12T22:36:44.118Z,100180.20
2019-02-12T22:43:10.175Z,100183.14
2019-02-12T22:49:46.881Z,100179.81
2019-02-12T22:55:40.366Z,100180.86
2019-02-12T23:02:06.214Z,100175.95
2019-02-12T23:08:32.887Z,100167.95
2019-02-12T23:15:11.844Z,100175.28
2019-02-12T23:21:38.022Z,100162.92
2019-02-12T23:27:26.270Z,100163.13
2019-02-12T23:37:43.588Z,100165.19
2019-02-12T23:44:22.094Z,100169.41
2019-02-12T23:50:47.133Z,100169.11
2019-02-12T23:57:15.843Z,100176.27
